DIRECCIÓN GENERAL DE AERONÁUTICA CIVIL
DIRECCIÓN METEOROLÓGICA DE CHILE
INFORMACIÓN METAR Y TAF

FIR PUERTO MONTT

Estación: SCQP
METAR SCQP 202200Z 23012KT 9999 SCT041 14/04 Q1017=

TAF SCQP 201540Z 2018/2118 23010KT 9999 BKN037 TX16/2019Z TN04/2109Z TEMPO 2018/2022 6000 -SHRA BKN030 BECMG 2100/2102 20004KT SCT030 TEMPO 2106/2110 BKN010 BECMG 2113/2115 CAVOK=

Estación: SCVD
METAR SCVD 202200Z 25009KT 220V280 9999 FEW040 14/03 Q1017=

TAF SCVD 201520Z 2018/2106 22008KT 9999 BKN030 TX14/2019Z TN08/2106Z TEMPO 2018/2021 5000 -SHRA=

Estación: SCJO
METAR SCJO 202200Z VRB02KT 9999 BKN030TCU 11/07 Q1017=

TAF SCJO 201550Z 2018/2106 23007KT 9999 BKN030 TX14/2018Z TN06/2106Z TEMPO 2018/2020 6000 -SHRA=

Estación: SCTE
METAR SCTE 202200Z 18006KT 9999 BKN034 11/08 Q1017 NOSIG=

TAF SCTE 201535Z 2018/2118 25010KT 9999 BKN033 TX13/2019Z TN04/2109Z TEMPO 2018/2023 4000 SHRA BECMG 2114/2116 16010KT SCT040=

Estación: SCPQ
METAR SCPQ 202200Z AUTO 21010KT //// FEW036 SCT042 11/04 Q1016=

TAF SCPQ 201550Z 2018/2106 24010KT 9999 BKN017 TX12/2019Z TN07/2106Z TEMPO 2018/2020 5000 -SHRA BECMG 2102/2104 SCT023=

Estación: SCON
METAR SCON 202200Z AUTO 25010KT CAVOK 12/03 Q1016=

TAF SCON 201550Z 2018/2106 25007KT 9999 BKN030 TX12/2019Z TN07/2106Z TEMPO 2018/2020 6000 -SHRA BKN020=

Estación: SCTN
METAR SCTN 202200Z AUTO /////KT ///V/// //// R/////// // FEW021 BKN024 OVC037 ///// Q////=

NIL=

Estación: SCFT
METAR SCFT 202200Z AUTO 30007KT 230V330 9999 ///030 08/02 Q1014=

NIL=

Estación: SCAP
METAR SCAP 202200Z AUTO 21010KT 150V250 //// // NSC 10/02 Q1019=

NIL=

Estación: SCMK
METAR SCMK 201600Z 20010KT 9999 BKN020 13/06 Q1013=

TAF SCMK 201550Z 2018/2106 25010KT 9999 BKN020 TX12/2019Z TN07/2106Z TEMPO 2018/2021 24015KT 5000 -SHRA=

Estación: SCAS
METAR SCAS 191900Z 26013G24KT 9999 -SHRA BKN036 10/01 Q1003=

NIL=

Estación: SCCY
METAR SCCY 202200Z 18008KT 9999 BKN040 10/03 Q1011=

TAF SCCY 201550Z 2018/2106 25010KT 9999 SCT040 TX12/2019Z TN05/2106Z TEMPO 2021/2100 6000 -SHRA BKN030 BECMG 2102/2104 VRB02KT=

Estación: SCBA
METAR SCBA 202100Z 31020KT 9999 BKN040 10/00 Q1007=

TAF SCBA 201530Z 2018/2118 30020KT 9999 SCT040 TX11/2019Z TNM02/2109Z BECMG 2101/2103 VRB02KT CAVOK BECMG 2110/2112 30010KT FEW050=

Estación: SCCC
METAR SCCC 191900Z 30024KT 9999 SCT040 11/M07 Q0996=

NIL=

Estación: SCHR
METAR SCHR 191900Z 25012KT 9999 BKN040 10/M04 Q0994=

TAF SCHR 191037Z 1912/2000 26007KT 9000 FEW037 SCT046 TX09/1918Z TN02/2000Z TEMPO 1913/1917 22011KT 5000 SHRA -SHGR SCT016 BKN025 BECMG 1920/1922 29010KT 9999 SCT040=


Volver